sensor_id;sensor_type;location;lat;lon;timestamp;P1;durP1;ratioP1;P2;durP2;ratioP2
69317;SDS011;56457;52.190;4.440;2022-07-29T00:00:07;4.97;;;1.33;;
69317;SDS011;56457;52.190;4.440;2022-07-29T00:01:09;6.88;;;1.40;;
69317;SDS011;56457;52.190;4.440;2022-07-29T00:02:14;3.92;;;1.08;;
69317;SDS011;56457;52.190;4.440;2022-07-29T00:03:14;4.20;;;1.10;;
69317;SDS011;56457;52.190;4.440;2022-07-29T00:04:15;4.57;;;1.13;;
69317;SDS011;56457;52.190;4.440;2022-07-29T00:05:15;9.63;;;1.90;;
69317;SDS011;56457;52.190;4.440;2022-07-29T00:06:16;7.60;;;1.50;;
69317;SDS011;56457;52.190;4.440;2022-07-29T00:07:16;8.27;;;1.30;;
69317;SDS011;56457;52.190;4.440;2022-07-29T00:08:16;6.20;;;1.50;;
69317;SDS011;56457;52.190;4.440;2022-07-29T00:09:17;7.75;;;1.30;;
69317;SDS011;56457;52.190;4.440;2022-07-29T00:10:17;12.35;;;1.63;;
69317;SDS011;56457;52.190;4.440;2022-07-29T00:11:18;7.30;;;1.50;;
69317;SDS011;56457;52.190;4.440;2022-07-29T00:12:19;8.73;;;1.30;;
69317;SDS011;56457;52.190;4.440;2022-07-29T00:13:21;5.47;;;1.25;;
69317;SDS011;56457;52.190;4.440;2022-07-29T00:14:21;4.73;;;1.40;;
69317;SDS011;56457;52.190;4.440;2022-07-29T00:15:21;4.77;;;1.50;;
69317;SDS011;56457;52.190;4.440;2022-07-29T00:16:22;5.22;;;1.35;;
69317;SDS011;56457;52.190;4.440;2022-07-29T00:17:23;8.35;;;1.70;;
69317;SDS011;56457;52.190;4.440;2022-07-29T00:18:24;5.15;;;1.25;;
69317;SDS011;56457;52.190;4.440;2022-07-29T00:19:24;6.82;;;1.58;;
69317;SDS011;56457;52.190;4.440;2022-07-29T00:20:24;5.40;;;1.40;;
69317;SDS011;56457;52.190;4.440;2022-07-29T00:21:25;6.03;;;1.40;;
69317;SDS011;56457;52.190;4.440;2022-07-29T00:22:25;4.03;;;1.37;;
69317;SDS011;56457;52.190;4.440;2022-07-29T00:23:26;5.70;;;1.43;;
69317;SDS011;56457;52.190;4.440;2022-07-29T00:24:26;6.97;;;1.63;;
69317;SDS011;56457;52.190;4.440;2022-07-29T00:25:26;5.53;;;1.23;;
69317;SDS011;56457;52.190;4.440;2022-07-29T00:26:27;7.85;;;1.42;;
69317;SDS011;56457;52.190;4.440;2022-07-29T00:27:31;10.07;;;1.67;;
69317;SDS011;56457;52.190;4.440;2022-07-29T00:28:31;8.90;;;1.93;;
69317;SDS011;56457;52.190;4.440;2022-07-29T00:29:32;7.27;;;1.23;;
69317;SDS011;56457;52.190;4.440;2022-07-29T00:30:32;6.63;;;1.23;;
69317;SDS011;56457;52.190;4.440;2022-07-29T00:31:32;7.13;;;1.43;;
69317;SDS011;56457;52.190;4.440;2022-07-29T00:32:33;14.03;;;1.60;;
69317;SDS011;56457;52.190;4.440;2022-07-29T00:33:33;11.65;;;1.70;;
69317;SDS011;56457;52.190;4.440;2022-07-29T00:34:34;2.93;;;1.50;;
69317;SDS011;56457;52.190;4.440;2022-07-29T00:35:53;5.97;;;1.42;;
69317;SDS011;56457;52.190;4.440;2022-07-29T00:36:53;7.80;;;1.33;;
69317;SDS011;56457;52.190;4.440;2022-07-29T00:37:54;5.33;;;1.73;;
69317;SDS011;56457;52.190;4.440;2022-07-29T00:38:54;4.38;;;1.30;;
69317;SDS011;56457;52.190;4.440;2022-07-29T00:39:54;6.95;;;1.38;;
69317;SDS011;56457;52.190;4.440;2022-07-29T00:40:55;5.53;;;1.70;;
69317;SDS011;56457;52.190;4.440;2022-07-29T00:41:55;8.73;;;1.47;;
69317;SDS011;56457;52.190;4.440;2022-07-29T00:42:55;8.93;;;2.10;;
69317;SDS011;56457;52.190;4.440;2022-07-29T00:43:56;10.43;;;1.60;;
69317;SDS011;56457;52.190;4.440;2022-07-29T00:44:56;9.88;;;1.77;;
69317;SDS011;56457;52.190;4.440;2022-07-29T00:45:57;8.23;;;1.70;;
69317;SDS011;56457;52.190;4.440;2022-07-29T00:46:57;6.82;;;1.15;;
69317;SDS011;56457;52.190;4.440;2022-07-29T00:47:58;8.30;;;1.45;;
69317;SDS011;56457;52.190;4.440;2022-07-29T00:48:58;8.50;;;1.42;;
69317;SDS011;56457;52.190;4.440;2022-07-29T00:49:58;7.67;;;1.53;;
69317;SDS011;56457;52.190;4.440;2022-07-29T00:50:59;4.17;;;1.33;;
69317;SDS011;56457;52.190;4.440;2022-07-29T00:52:02;11.18;;;1.65;;
69317;SDS011;56457;52.190;4.440;2022-07-29T00:53:05;9.55;;;1.20;;
69317;SDS011;56457;52.190;4.440;2022-07-29T00:54:07;5.78;;;1.48;;
69317;SDS011;56457;52.190;4.440;2022-07-29T00:55:08;4.05;;;1.20;;
69317;SDS011;56457;52.190;4.440;2022-07-29T00:56:13;5.30;;;1.25;;
69317;SDS011;56457;52.190;4.440;2022-07-29T00:57:13;9.23;;;1.20;;
69317;SDS011;56457;52.190;4.440;2022-07-29T00:58:14;7.05;;;1.50;;
69317;SDS011;56457;52.190;4.440;2022-07-29T00:59:14;6.75;;;1.58;;
69317;SDS011;56457;52.190;4.440;2022-07-29T01:00:16;5.82;;;1.52;;
69317;SDS011;56457;52.190;4.440;2022-07-29T01:01:19;11.18;;;1.60;;
69317;SDS011;56457;52.190;4.440;2022-07-29T01:02:19;9.20;;;1.70;;
69317;SDS011;56457;52.190;4.440;2022-07-29T01:03:19;10.27;;;1.80;;
69317;SDS011;56457;52.190;4.440;2022-07-29T01:04:22;5.50;;;1.40;;
69317;SDS011;56457;52.190;4.440;2022-07-29T01:05:24;5.13;;;1.30;;
69317;SDS011;56457;52.190;4.440;2022-07-29T01:06:26;6.60;;;1.77;;
69317;SDS011;56457;52.190;4.440;2022-07-29T01:07:26;7.55;;;1.63;;
69317;SDS011;56457;52.190;4.440;2022-07-29T01:08:28;11.23;;;1.50;;
69317;SDS011;56457;52.190;4.440;2022-07-29T01:09:31;11.50;;;1.52;;
69317;SDS011;56457;52.190;4.440;2022-07-29T01:10:33;11.65;;;1.27;;
69317;SDS011;56457;52.190;4.440;2022-07-29T01:11:37;9.55;;;1.65;;
69317;SDS011;56457;52.190;4.440;2022-07-29T01:12:38;7.57;;;1.70;;
69317;SDS011;56457;52.190;4.440;2022-07-29T01:13:40;4.05;;;1.20;;
69317;SDS011;56457;52.190;4.440;2022-07-29T01:14:42;6.45;;;1.80;;
69317;SDS011;56457;52.190;4.440;2022-07-29T01:15:54;3.45;;;1.45;;
69317;SDS011;56457;52.190;4.440;2022-07-29T01:16:59;6.85;;;1.38;;
69317;SDS011;56457;52.190;4.440;2022-07-29T01:30:02;7.47;;;1.30;;
69317;SDS011;56457;52.190;4.440;2022-07-29T01:31:03;17.35;;;1.75;;
69317;SDS011;56457;52.190;4.440;2022-07-29T01:32:19;5.35;;;1.63;;
69317;SDS011;56457;52.190;4.440;2022-07-29T01:33:21;7.78;;;2.13;;
69317;SDS011;56457;52.190;4.440;2022-07-29T01:34:48;11.60;;;2.20;;
69317;SDS011;56457;52.190;4.440;2022-07-29T01:35:56;7.07;;;1.60;;
69317;SDS011;56457;52.190;4.440;2022-07-29T01:37:01;9.63;;;1.42;;
69317;SDS011;56457;52.190;4.440;2022-07-29T01:38:09;8.30;;;1.17;;
69317;SDS011;56457;52.190;4.440;2022-07-29T01:40:18;7.03;;;1.80;;
69317;SDS011;56457;52.190;4.440;2022-07-29T01:41:21;5.22;;;1.10;;
69317;SDS011;56457;52.190;4.440;2022-07-29T01:43:49;10.95;;;1.92;;
69317;SDS011;56457;52.190;4.440;2022-07-29T01:45:15;6.45;;;1.30;;
69317;SDS011;56457;52.190;4.440;2022-07-29T01:46:54;6.90;;;1.70;;
69317;SDS011;56457;52.190;4.440;2022-07-29T01:48:03;8.48;;;1.88;;
69317;SDS011;56457;52.190;4.440;2022-07-29T01:49:14;7.45;;;1.60;;
69317;SDS011;56457;52.190;4.440;2022-07-29T01:50:17;3.80;;;1.23;;
69317;SDS011;56457;52.190;4.440;2022-07-29T01:52:08;4.35;;;1.15;;
69317;SDS011;56457;52.190;4.440;2022-07-29T01:52:52;6.93;;;1.77;;
69317;SDS011;56457;52.190;4.440;2022-07-29T01:54:04;12.57;;;1.90;;
69317;SDS011;56457;52.190;4.440;2022-07-29T01:55:13;8.82;;;1.90;;
69317;SDS011;56457;52.190;4.440;2022-07-29T01:56:16;6.57;;;1.60;;
69317;SDS011;56457;52.190;4.440;2022-07-29T01:57:20;7.70;;;1.73;;
69317;SDS011;56457;52.190;4.440;2022-07-29T01:58:25;7.93;;;1.73;;
69317;SDS011;56457;52.190;4.440;2022-07-29T01:59:29;11.15;;;1.67;;
69317;SDS011;56457;52.190;4.440;2022-07-29T02:00:31;7.88;;;1.55;;
69317;SDS011;56457;52.190;4.440;2022-07-29T02:01:33;10.10;;;1.90;;
69317;SDS011;56457;52.190;4.440;2022-07-29T02:02:36;6.93;;;1.70;;
69317;SDS011;56457;52.190;4.440;2022-07-29T02:03:39;7.22;;;1.58;;
69317;SDS011;56457;52.190;4.440;2022-07-29T02:04:44;13.13;;;2.03;;
69317;SDS011;56457;52.190;4.440;2022-07-29T02:05:48;10.13;;;1.92;;
69317;SDS011;56457;52.190;4.440;2022-07-29T02:06:51;5.70;;;1.55;;
69317;SDS011;56457;52.190;4.440;2022-07-29T02:07:53;7.38;;;1.85;;
69317;SDS011;56457;52.190;4.440;2022-07-29T02:08:55;10.30;;;2.20;;
69317;SDS011;56457;52.190;4.440;2022-07-29T02:09:58;9.15;;;1.90;;
69317;SDS011;56457;52.190;4.440;2022-07-29T02:11:01;6.50;;;1.77;;
69317;SDS011;56457;52.190;4.440;2022-07-29T02:12:04;5.15;;;1.67;;
69317;SDS011;56457;52.190;4.440;2022-07-29T02:13:07;11.88;;;1.88;;
69317;SDS011;56457;52.190;4.440;2022-07-29T02:14:11;10.40;;;1.85;;
69317;SDS011;56457;52.190;4.440;2022-07-29T02:15:14;9.27;;;2.05;;
69317;SDS011;56457;52.190;4.440;2022-07-29T02:16:16;9.88;;;1.77;;
69317;SDS011;56457;52.190;4.440;2022-07-29T02:17:22;6.47;;;1.90;;
69317;SDS011;56457;52.190;4.440;2022-07-29T02:18:26;10.10;;;1.77;;
69317;SDS011;56457;52.190;4.440;2022-07-29T02:19:29;5.85;;;1.92;;
69317;SDS011;56457;52.190;4.440;2022-07-29T02:20:32;8.27;;;1.90;;
69317;SDS011;56457;52.190;4.440;2022-07-29T02:21:33;6.55;;;1.52;;
69317;SDS011;56457;52.190;4.440;2022-07-29T02:22:37;6.50;;;1.75;;
69317;SDS011;56457;52.190;4.440;2022-07-29T02:23:39;5.18;;;1.67;;
69317;SDS011;56457;52.190;4.440;2022-07-29T02:24:40;6.30;;;1.70;;
69317;SDS011;56457;52.190;4.440;2022-07-29T02:25:42;11.23;;;1.95;;
69317;SDS011;56457;52.190;4.440;2022-07-29T02:26:43;8.07;;;1.63;;
69317;SDS011;56457;52.190;4.440;2022-07-29T02:27:45;8.65;;;1.80;;
69317;SDS011;56457;52.190;4.440;2022-07-29T02:28:48;12.98;;;1.88;;
69317;SDS011;56457;52.190;4.440;2022-07-29T02:29:51;6.63;;;1.92;;
69317;SDS011;56457;52.190;4.440;2022-07-29T02:30:54;5.53;;;1.83;;
69317;SDS011;56457;52.190;4.440;2022-07-29T02:31:57;5.70;;;1.77;;
69317;SDS011;56457;52.190;4.440;2022-07-29T02:33:00;3.97;;;1.60;;
69317;SDS011;56457;52.190;4.440;2022-07-29T02:34:02;8.77;;;2.00;;
69317;SDS011;56457;52.190;4.440;2022-07-29T02:35:05;5.32;;;1.88;;
69317;SDS011;56457;52.190;4.440;2022-07-29T02:36:08;11.00;;;1.55;;
69317;SDS011;56457;52.190;4.440;2022-07-29T02:37:09;4.78;;;1.50;;
69317;SDS011;56457;52.190;4.440;2022-07-29T02:38:12;5.60;;;1.30;;
69317;SDS011;56457;52.190;4.440;2022-07-29T02:39:33;8.15;;;1.65;;
69317;SDS011;56457;52.190;4.440;2022-07-29T02:41:41;6.57;;;1.77;;
69317;SDS011;56457;52.190;4.440;2022-07-29T02:42:45;5.00;;;1.77;;
69317;SDS011;56457;52.190;4.440;2022-07-29T02:43:47;8.68;;;1.90;;
69317;SDS011;56457;52.190;4.440;2022-07-29T02:44:50;9.10;;;1.52;;
69317;SDS011;56457;52.190;4.440;2022-07-29T02:46:53;6.18;;;1.50;;
69317;SDS011;56457;52.190;4.440;2022-07-29T02:48:05;14.52;;;1.70;;
69317;SDS011;56457;52.190;4.440;2022-07-29T02:49:18;11.75;;;1.75;;
69317;SDS011;56457;52.190;4.440;2022-07-29T02:50:23;9.10;;;1.83;;
69317;SDS011;56457;52.190;4.440;2022-07-29T02:51:49;10.82;;;2.10;;
69317;SDS011;56457;52.190;4.440;2022-07-29T02:52:56;11.00;;;1.70;;
69317;SDS011;56457;52.190;4.440;2022-07-29T02:53:59;8.45;;;1.65;;
69317;SDS011;56457;52.190;4.440;2022-07-29T02:56:28;10.85;;;1.90;;
69317;SDS011;56457;52.190;4.440;2022-07-29T02:57:36;9.13;;;1.70;;
69317;SDS011;56457;52.190;4.440;2022-07-29T02:58:54;4.45;;;1.70;;
69317;SDS011;56457;52.190;4.440;2022-07-29T02:59:59;4.90;;;1.60;;
69317;SDS011;56457;52.190;4.440;2022-07-29T03:01:08;10.27;;;1.98;;
69317;SDS011;56457;52.190;4.440;2022-07-29T03:02:13;6.07;;;1.98;;
69317;SDS011;56457;52.190;4.440;2022-07-29T03:03:16;7.32;;;1.40;;
69317;SDS011;56457;52.190;4.440;2022-07-29T03:04:18;5.45;;;1.70;;
69317;SDS011;56457;52.190;4.440;2022-07-29T03:05:20;13.20;;;2.15;;
69317;SDS011;56457;52.190;4.440;2022-07-29T03:06:23;7.85;;;1.90;;
69317;SDS011;56457;52.190;4.440;2022-07-29T03:07:27;6.88;;;1.67;;
69317;SDS011;56457;52.190;4.440;2022-07-29T03:08:28;6.57;;;1.70;;
69317;SDS011;56457;52.190;4.440;2022-07-29T03:09:30;10.00;;;1.45;;
69317;SDS011;56457;52.190;4.440;2022-07-29T03:10:31;7.45;;;1.73;;
69317;SDS011;56457;52.190;4.440;2022-07-29T03:12:34;4.53;;;1.60;;
69317;SDS011;56457;52.190;4.440;2022-07-29T03:13:35;8.63;;;1.98;;
69317;SDS011;56457;52.190;4.440;2022-07-29T03:14:36;9.18;;;2.17;;
69317;SDS011;56457;52.190;4.440;2022-07-29T03:15:37;5.88;;;1.95;;
69317;SDS011;56457;52.190;4.440;2022-07-29T03:16:38;10.10;;;1.95;;
69317;SDS011;56457;52.190;4.440;2022-07-29T03:17:39;10.27;;;2.22;;
69317;SDS011;56457;52.190;4.440;2022-07-29T03:19:41;10.68;;;1.70;;
69317;SDS011;56457;52.190;4.440;2022-07-29T03:20:42;8.80;;;2.03;;
69317;SDS011;56457;52.190;4.440;2022-07-29T03:21:42;12.88;;;2.03;;
69317;SDS011;56457;52.190;4.440;2022-07-29T03:22:43;6.30;;;1.70;;
69317;SDS011;56457;52.190;4.440;2022-07-29T03:23:46;8.18;;;2.03;;
69317;SDS011;56457;52.190;4.440;2022-07-29T03:24:47;9.93;;;1.87;;
69317;SDS011;56457;52.190;4.440;2022-07-29T03:25:48;10.68;;;2.53;;
69317;SDS011;56457;52.190;4.440;2022-07-29T03:26:49;5.38;;;1.83;;
69317;SDS011;56457;52.190;4.440;2022-07-29T03:27:49;6.53;;;1.63;;
69317;SDS011;56457;52.190;4.440;2022-07-29T03:28:50;7.43;;;1.97;;
69317;SDS011;56457;52.190;4.440;2022-07-29T03:29:50;10.00;;;1.67;;
69317;SDS011;56457;52.190;4.440;2022-07-29T03:30:51;5.20;;;1.93;;
69317;SDS011;56457;52.190;4.440;2022-07-29T03:31:51;10.85;;;1.80;;
69317;SDS011;56457;52.190;4.440;2022-07-29T03:32:52;5.55;;;1.65;;
69317;SDS011;56457;52.190;4.440;2022-07-29T03:33:52;4.30;;;1.58;;
69317;SDS011;56457;52.190;4.440;2022-07-29T03:34:53;4.90;;;1.63;;
69317;SDS011;56457;52.190;4.440;2022-07-29T03:35:53;10.67;;;2.50;;
69317;SDS011;56457;52.190;4.440;2022-07-29T03:36:54;13.13;;;2.30;;
69317;SDS011;56457;52.190;4.440;2022-07-29T03:37:54;5.27;;;1.93;;
69317;SDS011;56457;52.190;4.440;2022-07-29T03:38:54;7.43;;;1.70;;
69317;SDS011;56457;52.190;4.440;2022-07-29T03:40:58;9.75;;;2.42;;
69317;SDS011;56457;52.190;4.440;2022-07-29T03:42:03;6.05;;;1.98;;
69317;SDS011;56457;52.190;4.440;2022-07-29T03:43:07;7.47;;;1.77;;
69317;SDS011;56457;52.190;4.440;2022-07-29T03:44:10;8.63;;;2.17;;
69317;SDS011;56457;52.190;4.440;2022-07-29T03:45:15;7.25;;;1.90;;
69317;SDS011;56457;52.190;4.440;2022-07-29T03:46:18;6.90;;;2.00;;
69317;SDS011;56457;52.190;4.440;2022-07-29T03:47:23;12.68;;;2.20;;
69317;SDS011;56457;52.190;4.440;2022-07-29T03:48:27;7.00;;;2.33;;
69317;SDS011;56457;52.190;4.440;2022-07-29T03:49:31;8.15;;;1.98;;
69317;SDS011;56457;52.190;4.440;2022-07-29T03:50:36;12.20;;;2.03;;
69317;SDS011;56457;52.190;4.440;2022-07-29T03:51:36;6.88;;;2.30;;
69317;SDS011;56457;52.190;4.440;2022-07-29T03:52:37;7.15;;;2.50;;
69317;SDS011;56457;52.190;4.440;2022-07-29T03:53:38;9.30;;;2.38;;
69317;SDS011;56457;52.190;4.440;2022-07-29T03:54:38;10.82;;;2.65;;
69317;SDS011;56457;52.190;4.440;2022-07-29T03:55:41;15.43;;;2.40;;
69317;SDS011;56457;52.190;4.440;2022-07-29T03:56:43;7.57;;;2.25;;
69317;SDS011;56457;52.190;4.440;2022-07-29T03:57:47;10.02;;;2.10;;
69317;SDS011;56457;52.190;4.440;2022-07-29T03:58:52;11.43;;;2.35;;
69317;SDS011;56457;52.190;4.440;2022-07-29T03:59:53;11.13;;;2.45;;
69317;SDS011;56457;52.190;4.440;2022-07-29T04:00:55;14.48;;;2.47;;
69317;SDS011;56457;52.190;4.440;2022-07-29T04:01:55;6.07;;;2.33;;
69317;SDS011;56457;52.190;4.440;2022-07-29T04:02:57;12.15;;;2.55;;
69317;SDS011;56457;52.190;4.440;2022-07-29T04:03:58;9.65;;;2.45;;
69317;SDS011;56457;52.190;4.440;2022-07-29T04:05:00;12.75;;;2.45;;
69317;SDS011;56457;52.190;4.440;2022-07-29T04:06:02;12.17;;;2.20;;
69317;SDS011;56457;52.190;4.440;2022-07-29T04:07:05;10.18;;;2.20;;
69317;SDS011;56457;52.190;4.440;2022-07-29T04:08:06;5.70;;;2.23;;
69317;SDS011;56457;52.190;4.440;2022-07-29T04:09:07;13.48;;;2.45;;
69317;SDS011;56457;52.190;4.440;2022-07-29T04:10:08;9.55;;;2.33;;
69317;SDS011;56457;52.190;4.440;2022-07-29T04:11:08;6.32;;;2.03;;
69317;SDS011;56457;52.190;4.440;2022-07-29T04:12:09;10.07;;;2.40;;
69317;SDS011;56457;52.190;4.440;2022-07-29T04:13:10;14.98;;;2.67;;
69317;SDS011;56457;52.190;4.440;2022-07-29T04:14:10;7.47;;;2.13;;
69317;SDS011;56457;52.190;4.440;2022-07-29T04:15:11;8.68;;;2.25;;
69317;SDS011;56457;52.190;4.440;2022-07-29T04:16:11;5.50;;;1.80;;
69317;SDS011;56457;52.190;4.440;2022-07-29T04:17:12;7.72;;;2.05;;
69317;SDS011;56457;52.190;4.440;2022-07-29T04:18:12;7.70;;;2.40;;
69317;SDS011;56457;52.190;4.440;2022-07-29T04:19:13;6.47;;;2.30;;
69317;SDS011;56457;52.190;4.440;2022-07-29T04:20:13;9.20;;;2.25;;
69317;SDS011;56457;52.190;4.440;2022-07-29T04:21:14;11.37;;;2.83;;
69317;SDS011;56457;52.190;4.440;2022-07-29T04:22:14;4.50;;;1.93;;
69317;SDS011;56457;52.190;4.440;2022-07-29T04:23:14;7.30;;;1.80;;
69317;SDS011;56457;52.190;4.440;2022-07-29T04:24:18;8.02;;;2.55;;
69317;SDS011;56457;52.190;4.440;2022-07-29T04:25:18;7.23;;;2.30;;
69317;SDS011;56457;52.190;4.440;2022-07-29T04:26:19;6.95;;;2.10;;
69317;SDS011;56457;52.190;4.440;2022-07-29T04:27:20;7.18;;;2.67;;
69317;SDS011;56457;52.190;4.440;2022-07-29T04:28:20;5.47;;;1.70;;
69317;SDS011;56457;52.190;4.440;2022-07-29T04:29:21;8.60;;;2.00;;
69317;SDS011;56457;52.190;4.440;2022-07-29T04:30:21;9.32;;;2.03;;
69317;SDS011;56457;52.190;4.440;2022-07-29T04:31:22;7.50;;;1.92;;
69317;SDS011;56457;52.190;4.440;2022-07-29T04:32:23;6.17;;;2.23;;
69317;SDS011;56457;52.190;4.440;2022-07-29T04:34:24;10.60;;;2.03;;
69317;SDS011;56457;52.190;4.440;2022-07-29T04:35:24;6.80;;;1.70;;
69317;SDS011;56457;52.190;4.440;2022-07-29T04:36:25;7.70;;;2.00;;
69317;SDS011;56457;52.190;4.440;2022-07-29T04:37:25;8.03;;;2.17;;
69317;SDS011;56457;52.190;4.440;2022-07-29T04:38:26;8.10;;;2.05;;
69317;SDS011;56457;52.190;4.440;2022-07-29T04:39:26;9.70;;;2.13;;
69317;SDS011;56457;52.190;4.440;2022-07-29T04:40:27;11.45;;;1.67;;
69317;SDS011;56457;52.190;4.440;2022-07-29T04:41:27;7.00;;;2.15;;
69317;SDS011;56457;52.190;4.440;2022-07-29T04:42:28;8.27;;;2.10;;
69317;SDS011;56457;52.190;4.440;2022-07-29T04:43:28;6.30;;;2.43;;
69317;SDS011;56457;52.190;4.440;2022-07-29T04:44:29;9.73;;;2.60;;
69317;SDS011;56457;52.190;4.440;2022-07-29T04:45:29;11.57;;;2.05;;
69317;SDS011;56457;52.190;4.440;2022-07-29T04:46:29;6.78;;;2.45;;
69317;SDS011;56457;52.190;4.440;2022-07-29T04:47:30;8.82;;;2.33;;
69317;SDS011;56457;52.190;4.440;2022-07-29T04:48:30;14.17;;;2.17;;
69317;SDS011;56457;52.190;4.440;2022-07-29T04:49:31;7.43;;;2.17;;
69317;SDS011;56457;52.190;4.440;2022-07-29T04:50:31;6.17;;;2.00;;
69317;SDS011;56457;52.190;4.440;2022-07-29T04:51:31;11.57;;;2.33;;
69317;SDS011;56457;52.190;4.440;2022-07-29T04:52:32;7.10;;;2.25;;
69317;SDS011;56457;52.190;4.440;2022-07-29T04:53:32;12.95;;;2.38;;
69317;SDS011;56457;52.190;4.440;2022-07-29T04:54:33;9.50;;;2.00;;
69317;SDS011;56457;52.190;4.440;2022-07-29T04:55:34;5.80;;;1.80;;
69317;SDS011;56457;52.190;4.440;2022-07-29T04:56:36;5.68;;;2.13;;
69317;SDS011;56457;52.190;4.440;2022-07-29T04:57:36;4.63;;;1.90;;
69317;SDS011;56457;52.190;4.440;2022-07-29T04:58:37;10.70;;;2.00;;
69317;SDS011;56457;52.190;4.440;2022-07-29T04:59:37;11.93;;;2.33;;
69317;SDS011;56457;52.190;4.440;2022-07-29T05:00:38;7.37;;;1.87;;
69317;SDS011;56457;52.190;4.440;2022-07-29T05:02:39;5.50;;;1.90;;
69317;SDS011;56457;52.190;4.440;2022-07-29T05:03:39;6.25;;;1.92;;
69317;SDS011;56457;52.190;4.440;2022-07-29T05:04:40;7.38;;;2.10;;
69317;SDS011;56457;52.190;4.440;2022-07-29T05:05:41;11.50;;;2.10;;
69317;SDS011;56457;52.190;4.440;2022-07-29T05:06:42;7.90;;;2.40;;
69317;SDS011;56457;52.190;4.440;2022-07-29T05:07:42;11.17;;;2.43;;
69317;SDS011;56457;52.190;4.440;2022-07-29T05:08:42;11.03;;;1.73;;
69317;SDS011;56457;52.190;4.440;2022-07-29T05:09:43;4.90;;;1.90;;
69317;SDS011;56457;52.190;4.440;2022-07-29T05:10:43;11.68;;;2.42;;
69317;SDS011;56457;52.190;4.440;2022-07-29T05:11:45;8.15;;;2.60;;
69317;SDS011;56457;52.190;4.440;2022-07-29T05:12:45;5.82;;;2.03;;
69317;SDS011;56457;52.190;4.440;2022-07-29T05:13:46;8.45;;;2.15;;
69317;SDS011;56457;52.190;4.440;2022-07-29T05:14:46;18.67;;;2.35;;
69317;SDS011;56457;52.190;4.440;2022-07-29T05:15:47;6.28;;;2.20;;
69317;SDS011;56457;52.190;4.440;2022-07-29T05:25:04;4.40;;;2.05;;
69317;SDS011;56457;52.190;4.440;2022-07-29T05:26:05;11.10;;;2.70;;
69317;SDS011;56457;52.190;4.440;2022-07-29T05:27:06;10.23;;;2.40;;
69317;SDS011;56457;52.190;4.440;2022-07-29T05:28:06;6.35;;;2.40;;
69317;SDS011;56457;52.190;4.440;2022-07-29T05:29:06;10.23;;;2.50;;
69317;SDS011;56457;52.190;4.440;2022-07-29T05:30:07;9.02;;;2.60;;
69317;SDS011;56457;52.190;4.440;2022-07-29T05:31:08;12.05;;;2.60;;
69317;SDS011;56457;52.190;4.440;2022-07-29T05:32:08;8.37;;;2.30;;
69317;SDS011;56457;52.190;4.440;2022-07-29T05:33:09;9.23;;;2.97;;
69317;SDS011;56457;52.190;4.440;2022-07-29T05:34:09;15.40;;;2.37;;
69317;SDS011;56457;52.190;4.440;2022-07-29T05:35:09;10.57;;;2.60;;
69317;SDS011;56457;52.190;4.440;2022-07-29T05:36:11;10.57;;;2.30;;
69317;SDS011;56457;52.190;4.440;2022-07-29T05:37:11;16.10;;;2.30;;
69317;SDS011;56457;52.190;4.440;2022-07-29T05:38:13;9.85;;;2.00;;
69317;SDS011;56457;52.190;4.440;2022-07-29T05:39:13;11.00;;;2.57;;
69317;SDS011;56457;52.190;4.440;2022-07-29T05:40:14;9.25;;;2.13;;
69317;SDS011;56457;52.190;4.440;2022-07-29T05:41:14;9.15;;;2.15;;
69317;SDS011;56457;52.190;4.440;2022-07-29T05:42:14;9.60;;;2.27;;
69317;SDS011;56457;52.190;4.440;2022-07-29T05:43:15;10.40;;;1.90;;
69317;SDS011;56457;52.190;4.440;2022-07-29T05:44:15;10.00;;;2.10;;
69317;SDS011;56457;52.190;4.440;2022-07-29T05:45:16;14.27;;;2.92;;
69317;SDS011;56457;52.190;4.440;2022-07-29T05:46:16;7.75;;;2.28;;
69317;SDS011;56457;52.190;4.440;2022-07-29T05:47:17;17.20;;;2.33;;
69317;SDS011;56457;52.190;4.440;2022-07-29T05:48:17;12.45;;;2.13;;
69317;SDS011;56457;52.190;4.440;2022-07-29T05:49:18;10.95;;;2.63;;
69317;SDS011;56457;52.190;4.440;2022-07-29T05:50:18;18.80;;;2.90;;
69317;SDS011;56457;52.190;4.440;2022-07-29T05:51:18;10.80;;;2.17;;
69317;SDS011;56457;52.190;4.440;2022-07-29T05:52:19;7.60;;;1.98;;
69317;SDS011;56457;52.190;4.440;2022-07-29T05:53:20;6.15;;;1.67;;
69317;SDS011;56457;52.190;4.440;2022-07-29T05:54:20;7.50;;;2.10;;
69317;SDS011;56457;52.190;4.440;2022-07-29T05:55:20;9.65;;;2.17;;
69317;SDS011;56457;52.190;4.440;2022-07-29T05:56:21;7.13;;;1.83;;
69317;SDS011;56457;52.190;4.440;2022-07-29T05:57:22;6.27;;;1.97;;
69317;SDS011;56457;52.190;4.440;2022-07-29T05:58:23;12.70;;;2.10;;
69317;SDS011;56457;52.190;4.440;2022-07-29T05:59:24;4.93;;;2.00;;
69317;SDS011;56457;52.190;4.440;2022-07-29T06:00:24;14.73;;;2.20;;
69317;SDS011;56457;52.190;4.440;2022-07-29T06:01:24;8.18;;;1.98;;
69317;SDS011;56457;52.190;4.440;2022-07-29T06:02:25;9.95;;;2.30;;
69317;SDS011;56457;52.190;4.440;2022-07-29T06:03:25;8.93;;;2.03;;
69317;SDS011;56457;52.190;4.440;2022-07-29T06:04:27;7.50;;;1.88;;
69317;SDS011;56457;52.190;4.440;2022-07-29T06:05:27;9.60;;;2.22;;
69317;SDS011;56457;52.190;4.440;2022-07-29T06:06:27;10.43;;;2.30;;
69317;SDS011;56457;52.190;4.440;2022-07-29T06:07:28;9.30;;;2.00;;
69317;SDS011;56457;52.190;4.440;2022-07-29T06:08:29;8.73;;;1.85;;
69317;SDS011;56457;52.190;4.440;2022-07-29T06:09:29;6.43;;;1.80;;
69317;SDS011;56457;52.190;4.440;2022-07-29T06:10:30;7.32;;;2.05;;
69317;SDS011;56457;52.190;4.440;2022-07-29T06:11:30;9.10;;;2.20;;
69317;SDS011;56457;52.190;4.440;2022-07-29T06:12:30;9.18;;;2.20;;
69317;SDS011;56457;52.190;4.440;2022-07-29T06:13:31;10.93;;;2.33;;
69317;SDS011;56457;52.190;4.440;2022-07-29T06:14:31;10.27;;;2.40;;
69317;SDS011;56457;52.190;4.440;2022-07-29T06:15:32;4.57;;;1.80;;
69317;SDS011;56457;52.190;4.440;2022-07-29T06:16:33;6.15;;;1.92;;
69317;SDS011;56457;52.190;4.440;2022-07-29T06:17:34;17.45;;;2.80;;
69317;SDS011;56457;52.190;4.440;2022-07-29T06:18:34;8.25;;;2.22;;
69317;SDS011;56457;52.190;4.440;2022-07-29T06:19:35;13.13;;;2.30;;
69317;SDS011;56457;52.190;4.440;2022-07-29T06:20:36;9.15;;;1.90;;
69317;SDS011;56457;52.190;4.440;2022-07-29T06:21:37;6.47;;;1.75;;
69317;SDS011;56457;52.190;4.440;2022-07-29T06:22:42;5.88;;;1.80;;
69317;SDS011;56457;52.190;4.440;2022-07-29T06:23:42;12.17;;;2.23;;
69317;SDS011;56457;52.190;4.440;2022-07-29T06:24:44;14.50;;;2.13;;
69317;SDS011;56457;52.190;4.440;2022-07-29T06:25:44;10.63;;;2.63;;
69317;SDS011;56457;52.190;4.440;2022-07-29T06:26:45;6.00;;;1.77;;
69317;SDS011;56457;52.190;4.440;2022-07-29T06:27:46;6.57;;;2.22;;
69317;SDS011;56457;52.190;4.440;2022-07-29T06:28:46;9.93;;;2.00;;
69317;SDS011;56457;52.190;4.440;2022-07-29T06:29:47;10.45;;;2.28;;
69317;SDS011;56457;52.190;4.440;2022-07-29T06:30:47;10.05;;;2.15;;
69317;SDS011;56457;52.190;4.440;2022-07-29T06:31:48;13.83;;;2.63;;
69317;SDS011;56457;52.190;4.440;2022-07-29T06:32:48;12.87;;;2.40;;
69317;SDS011;56457;52.190;4.440;2022-07-29T06:33:49;10.15;;;2.17;;
69317;SDS011;56457;52.190;4.440;2022-07-29T06:34:50;5.68;;;1.98;;
69317;SDS011;56457;52.190;4.440;2022-07-29T06:35:50;12.75;;;2.67;;
69317;SDS011;56457;52.190;4.440;2022-07-29T06:36:51;7.97;;;1.88;;
69317;SDS011;56457;52.190;4.440;2022-07-29T06:37:52;8.35;;;2.35;;
69317;SDS011;56457;52.190;4.440;2022-07-29T06:38:53;10.35;;;2.45;;
69317;SDS011;56457;52.190;4.440;2022-07-29T06:39:53;14.40;;;2.93;;
69317;SDS011;56457;52.190;4.440;2022-07-29T06:41:12;10.45;;;2.75;;
69317;SDS011;56457;52.190;4.440;2022-07-29T06:42:15;11.23;;;2.35;;
69317;SDS011;56457;52.190;4.440;2022-07-29T06:43:16;6.97;;;2.45;;
69317;SDS011;56457;52.190;4.440;2022-07-29T06:44:17;11.63;;;2.33;;